Autodesk Pre-Tax Profit Margin 2006-2020 | ADSK

Current and historical pre-tax profit margin for Autodesk (ADSK) from 2006 to 2020. Pre-tax profit margin can be defined as earnings before taxes as a portion of total revenue. Autodesk pre-tax profit margin for the three months ending April 30, 2020 was .
Autodesk Pre-Tax Profit Margin Historical Data
Date TTM Revenue TTM Pre-Tax Income Pre-Tax Margin
2020-04-30 $3.43B $0.38B 11.01%
2020-01-31 $3.28B $0.30B 9.01%
2019-10-31 $3.11B $0.21B 6.59%
2019-07-31 $2.93B $0.12B 4.13%
2019-04-30 $2.75B $0.03B 1.13%
2019-01-31 $2.57B $-0.04B -1.63%
2018-10-31 $2.39B $-0.27B -11.44%
2018-07-31 $2.24B $-0.40B -17.67%
2018-04-30 $2.13B $-0.50B -23.42%
2018-01-31 $2.06B $-0.56B -27.03%
2017-10-31 $1.98B $-0.53B -26.54%
2017-07-31 $1.96B $-0.54B -27.80%
2017-04-30 $2.01B $-0.49B -24.48%
2017-01-31 $2.03B $-0.52B -25.74%
2016-10-31 $2.20B $-0.38B -17.08%
2016-07-31 $2.31B $-0.27B -11.68%
2016-04-30 $2.37B $-0.20B -8.27%
2016-01-31 $2.51B $-0.02B -0.84%
2015-10-31 $2.52B $-0.01B -0.28%
2015-07-31 $2.54B $0.03B 1.10%
2015-04-30 $2.57B $0.07B 2.73%
2015-01-31 $2.51B $0.08B 3.34%
2014-10-31 $2.44B $0.15B 6.04%
2014-07-31 $2.37B $0.20B 8.60%
2014-04-30 $2.30B $0.24B 10.58%
2014-01-31 $2.27B $0.28B 12.31%
2013-10-31 $2.29B $0.31B 13.51%
2013-07-31 $2.29B $0.28B 12.02%
2013-04-30 $2.29B $0.29B 12.42%
2013-01-31 $2.31B $0.31B 13.40%
2012-10-31 $2.30B $0.32B 13.79%
2012-07-31 $2.30B $0.37B 16.27%
2012-04-30 $2.28B $0.38B 16.52%
2012-01-31 $2.22B $0.36B 16.39%
2011-10-31 $2.15B $0.34B 15.95%
2011-07-31 $2.08B $0.32B 15.58%
2011-04-30 $2.01B $0.31B 15.45%
2011-01-31 $1.95B $0.27B 13.93%
2010-10-31 $1.88B $0.26B 13.72%
2010-07-31 $1.82B $0.22B 11.97%
2010-04-30 $1.76B $0.15B 8.56%
2010-01-31 $1.71B $0.09B 4.96%
2009-10-31 $1.75B $-0.11B -6.29%
2009-07-31 $1.94B $-0.01B -0.31%
2009-04-30 $2.14B $0.11B 4.95%
2009-01-31 $2.32B $0.25B 10.88%
2008-10-31 $2.43B $0.52B 21.40%
2008-07-31 $2.36B $0.49B 20.93%
2008-04-30 $2.26B $0.49B 21.49%
2008-01-31 $2.17B $0.47B 21.64%
2007-10-31 $2.07B $0.46B 22.37%
2007-07-31 $1.99B $0.43B 21.52%
2007-04-30 $1.91B $0.42B 21.69%
2007-01-31 $1.84B $0.37B 19.95%
2006-10-31 $1.77B $0.35B 19.75%
2006-07-31 $1.69B $0.37B 21.99%
2006-04-30 $1.62B $0.36B 22.30%
2006-01-31 $1.54B $0.39B 25.49%
2005-10-31 $1.48B $0.37B 24.75%
Sector Industry Market Cap Revenue
Computer and Technology Computer Software $51.825B $3.274B
Autodesk, Inc., is a leader in 3D design, engineering and entertainment software. Since its introduction of AutoCAD software in 1982, Autodesk continues to develop the broadest portfolio of 3D software for global markets. Customers across the manufacturing, architecture, building, construction, and media and entertainment industries-including the last 19 Academy Award winners for Best Visual Effects-use Autodesk software to design, visualize, and simulate their ideas before they're ever built or created. From blockbuster visual effects and buildings that create their own energy, to electric cars and the batteries that power them, the work of our 3D software customers is everywhere you look. Through their apps for iPhone, iPad, iPod, and Android, they're also making design technology accessible to professional designers and amateur designers, homeowners, students, and casual creators - anyone who wants to create and share their ideas with the world.
Stock Name Country Market Cap PE Ratio
Microsoft (MSFT) United States $1000.000B 35.65
Adobe (ADBE) United States $213.125B 57.85
SAP SE (SAP) Germany $190.045B 34.46
Salesforce, Inc (CRM) United States $175.560B 240.56
Oracle (ORCL) United States $170.158B 15.84
Intuit (INTU) United States $79.893B 63.69
VMware (VMW) United States $58.755B 30.35
Dassault Systemes SA (DASTY) France $46.921B 51.82
Cadence Design Systems (CDNS) United States $30.458B 30.10
Synopsys (SNPS) United States $29.990B 64.89
ANSYS (ANSS) United States $26.586B 62.49
Citrix Systems (CTXS) United States $17.624B 29.68
SS&C Technologies Holdings (SSNC) United States $14.734B 14.90
Open Text (OTEX) Canada $12.231B 43.30
PTC (PTC) United States $9.899B 46.50
Pegasystems (PEGA) United States $9.400B 0.00
Trend Micro (TMICY) Japan $8.256B 29.82
Nuance Communications (NUAN) United States $7.693B 37.99
Aspen Technology (AZPN) United States $6.575B 28.36
Manhattan Associates (MANH) United States $6.085B 75.43
Descartes Systems Group (DSGX) Canada $4.758B 119.85
Konami (KNMCY) Japan $4.092B 22.75
ACI Worldwide (ACIW) United States $3.106B 46.19
Blackbaud (BLKB) United States $3.103B 46.33
Verint Systems (VRNT) United States $2.897B 19.60
Cornerstone OnDemand (CSOD) United States $2.264B 41.29
Bottomline Technologies (EPAY) United States $2.120B 127.00
CommVault Systems (CVLT) United States $2.045B 80.14
Progress Software (PRGS) United States $1.561B 13.72
Sapiens (SPNS) Israel $1.535B 38.68
PROS Holdings (PRO) United States $1.414B 0.00
Simulations Plus (SLP) United States $1.255B 130.37
MicroStrategy (MSTR) United States $1.252B 48.79
Rosetta Stone (RST) United States $0.658B 0.00
Magic Software Enterprises (MGIC) Israel $0.587B 19.03
QAD (QADB) United States $0.575B 2816.00
American Software (AMSWA) United States $0.534B 63.35
Canaan (CAN) China $0.392B 0.00
Avid Technology (AVID) United States $0.360B 35.78
Icad Inc (ICAD) United States $0.211B 0.00
OptimizeRx (OPRX) United States $0.207B 0.00
Smith Micro Software (SMSI) United States $0.171B 12.15
ServiceSource (SREV) United States $0.149B 0.00
Park City (PCYG) United States $0.086B 87.40
Neonode (NEON) Sweden $0.085B 0.00
NetSol Technologies (NTWK) United States $0.037B 11.37
CounterPath (CPAH) Canada $0.030B 0.00
BSQUARE (BSQR) United States $0.019B 0.00
GSE Systems (GVP) United States $0.019B 18.80